Time;durP1;ratioP1;P1;durP2;ratioP2;P2;SDS_P1;SDS_P2;PMS_P1;PMS_P2;Temp;Humidity;BMP_temperature;BMP_pressure;BME280_temperature;BME280_humidity;BME280_pressure;Samples;Min_cycle;Max_cycle;Signal;HPM_P1;HPM_P2
2023/07/23 00:01:56;;;;;;;5.07;4.57;;;;;;;;;;5012922;28;20540;-59
2023/07/23 00:04:24;;;;;;;5.13;4.73;;;;;;;;;;5013060;28;20493;-58
2023/07/23 00:06:51;;;;;;;4.57;4.27;;;;;;;;;;5013055;28;20464;-58
2023/07/23 00:09:18;;;;;;;4.93;4.53;;;;;;;;;;5012978;28;20538;-57
2023/07/23 00:11:45;;;;;;;6.80;4.90;;;;;;;;;;5013019;28;20547;-58
2023/07/23 00:14:12;;;;;;;4.00;3.70;;;;;;;;;;5012831;28;20813;-59
2023/07/23 00:16:39;;;;;;;5.53;5.03;;;;;;;;;;5012780;28;20552;-58
2023/07/23 00:19:06;;;;;;;4.23;3.93;;;;;;;;;;5013070;28;20460;-58
2023/07/23 00:21:34;;;;;;;4.80;4.30;;;;;;;;;;5012932;28;20458;-57
2023/07/23 00:24:04;;;;;;;5.93;4.37;;;;;;;;;;5012809;28;20457;-58
2023/07/23 00:26:31;;;;;;;4.37;3.93;;;;;;;;;;5012773;28;20468;-58
2023/07/23 00:28:58;;;;;;;3.90;3.60;;;;;;;;;;5012638;28;20968;-58
2023/07/23 00:31:25;;;;;;;4.60;4.30;;;;;;;;;;5013140;28;20463;-58
2023/07/23 00:33:52;;;;;;;6.77;3.93;;;;;;;;;;5012843;28;20457;-58
2023/07/23 00:36:19;;;;;;;5.13;4.73;;;;;;;;;;5012731;28;20456;-58
2023/07/23 00:38:48;;;;;;;4.63;4.30;;;;;;;;;;5012730;28;20862;-58
2023/07/23 00:41:17;;;;;;;4.73;4.30;;;;;;;;;;5012708;28;20455;-58
2023/07/23 00:43:44;;;;;;;4.43;4.13;;;;;;;;;;5012504;28;20828;-58
2023/07/23 00:46:11;;;;;;;4.70;4.30;;;;;;;;;;5012666;28;20489;-57
2023/07/23 00:48:38;;;;;;;4.63;4.30;;;;;;;;;;5012945;28;20871;-58
2023/07/23 00:51:05;;;;;;;5.80;4.73;;;;;;;;;;5013143;28;20457;-58
2023/07/23 00:53:32;;;;;;;4.90;4.50;;;;;;;;;;5016176;28;20453;-58
2023/07/23 00:56:01;;;;;;;4.30;4.00;;;;;;;;;;5015751;28;20454;-58
2023/07/23 00:58:28;;;;;;;4.80;4.40;;;;;;;;;;5016290;28;20876;-57
2023/07/23 01:00:55;;;;;;;4.57;4.10;;;;;;;;;;5016162;28;20543;-58
2023/07/23 01:03:22;;;;;;;4.60;4.20;;;;;;;;;;5016095;28;20452;-57
2023/07/23 01:05:49;;;;;;;4.93;4.53;;;;;;;;;;5015894;28;20484;-56
2023/07/23 01:08:16;;;;;;;4.20;3.90;;;;;;;;;;5015745;28;20539;-57
2023/07/23 01:10:43;;;;;;;3.97;3.57;;;;;;;;;;5015804;28;20460;-57
2023/07/23 01:13:11;;;;;;;6.17;4.17;;;;;;;;;;5015761;28;20532;-57
2023/07/23 01:15:38;;;;;;;3.93;3.63;;;;;;;;;;5015901;28;20503;-58
2023/07/23 01:18:05;;;;;;;4.50;4.10;;;;;;;;;;5015819;28;20895;-57
2023/07/23 01:20:32;;;;;;;4.77;4.33;;;;;;;;;;4998061;28;20460;-58
2023/07/23 01:23:00;;;;;;;4.60;4.30;;;;;;;;;;5015547;28;20540;-59
2023/07/23 01:25:27;;;;;;;4.33;3.93;;;;;;;;;;5015446;28;20481;-58
2023/07/23 01:27:54;;;;;;;4.67;3.80;;;;;;;;;;5015682;28;20457;-58
2023/07/23 01:30:21;;;;;;;5.40;4.57;;;;;;;;;;5015561;28;20516;-58
2023/07/23 01:32:49;;;;;;;4.37;4.07;;;;;;;;;;5015499;28;20449;-58
2023/07/23 01:35:17;;;;;;;5.53;4.07;;;;;;;;;;5015402;28;20449;-57
2023/07/23 01:37:47;;;;;;;4.87;4.40;;;;;;;;;;5015275;28;20452;-58
2023/07/23 01:40:15;;;;;;;3.90;3.60;;;;;;;;;;5015443;28;20449;-58
2023/07/23 01:42:44;;;;;;;4.87;4.43;;;;;;;;;;5015373;28;20476;-58
2023/07/23 01:45:11;;;;;;;4.13;3.83;;;;;;;;;;5015061;28;20488;-58
2023/07/23 01:47:38;;;;;;;4.67;4.27;;;;;;;;;;5015172;28;20464;-56
2023/07/23 01:50:05;;;;;;;4.77;4.37;;;;;;;;;;5014986;28;20543;-59
2023/07/23 01:52:35;;;;;;;6.17;4.63;;;;;;;;;;4981478;28;20449;-57
2023/07/23 01:55:02;;;;;;;4.40;4.00;;;;;;;;;;5015133;28;20489;-58
2023/07/23 01:57:30;;;;;;;4.33;4.03;;;;;;;;;;5014855;28;20557;-58
2023/07/23 01:59:57;;;;;;;5.63;4.30;;;;;;;;;;5014982;28;20575;-58
2023/07/23 02:02:24;;;;;;;4.87;4.50;;;;;;;;;;5013950;28;20461;-58
2023/07/23 02:04:51;;;;;;;5.07;4.67;;;;;;;;;;5014303;28;20481;-58
2023/07/23 02:07:18;;;;;;;5.13;3.87;;;;;;;;;;5014914;28;20917;-58
2023/07/23 02:09:45;;;;;;;4.40;3.87;;;;;;;;;;5014656;28;20493;-58
2023/07/23 02:12:12;;;;;;;5.10;4.40;;;;;;;;;;5014924;28;20485;-57
2023/07/23 02:14:40;;;;;;;4.40;4.10;;;;;;;;;;5014700;28;20552;-58
2023/07/23 02:17:07;;;;;;;4.53;4.10;;;;;;;;;;5014618;28;20873;-56
2023/07/23 02:19:36;;;;;;;5.53;5.00;;;;;;;;;;5014530;28;20532;-58
2023/07/23 02:22:05;;;;;;;5.50;5.10;;;;;;;;;;5014660;28;20476;-57
2023/07/23 02:24:32;;;;;;;5.00;4.60;;;;;;;;;;5014451;28;20544;-58
2023/07/23 02:26:58;;;;;;;5.53;5.00;;;;;;;;;;5014362;28;21032;-58
2023/07/23 02:29:25;;;;;;;5.50;5.00;;;;;;;;;;5014325;28;20816;-57
2023/07/23 02:31:54;;;;;;;5.50;5.00;;;;;;;;;;5014251;28;20540;-57
2023/07/23 02:34:21;;;;;;;4.83;4.43;;;;;;;;;;5014425;28;20480;-58
2023/07/23 02:36:48;;;;;;;5.60;5.10;;;;;;;;;;5014384;28;20553;-58
2023/07/23 02:39:15;;;;;;;5.03;4.63;;;;;;;;;;5014353;28;20461;-58
2023/07/23 02:41:41;;;;;;;6.20;5.20;;;;;;;;;;5014230;28;21014;-58
2023/07/23 02:44:08;;;;;;;5.30;4.80;;;;;;;;;;5014072;28;20967;-58
2023/07/23 02:46:35;;;;;;;5.40;4.90;;;;;;;;;;5013891;28;20588;-58
2023/07/23 02:49:04;;;;;;;5.03;4.63;;;;;;;;;;5013968;28;20950;-56
2023/07/23 02:51:31;;;;;;;5.37;4.87;;;;;;;;;;5014156;28;20459;-58
2023/07/23 02:53:57;;;;;;;11.10;5.93;;;;;;;;;;5014043;28;20453;-57
2023/07/23 02:56:24;;;;;;;8.80;4.90;;;;;;;;;;5013809;28;20579;-57
2023/07/23 02:58:51;;;;;;;6.03;5.10;;;;;;;;;;5013843;28;20878;-57
2023/07/23 03:01:19;;;;;;;4.87;4.47;;;;;;;;;;5013810;28;20449;-58
2023/07/23 03:03:48;;;;;;;5.20;4.80;;;;;;;;;;5013946;28;20457;-57
2023/07/23 03:06:16;;;;;;;5.50;5.00;;;;;;;;;;5013767;28;20898;-57
2023/07/23 03:08:43;;;;;;;6.20;5.60;;;;;;;;;;5013655;28;20948;-58
2023/07/23 03:11:11;;;;;;;6.03;5.53;;;;;;;;;;5013607;28;20496;-58
2023/07/23 03:13:39;;;;;;;5.20;4.70;;;;;;;;;;5013197;28;20504;-57
2023/07/23 03:16:06;;;;;;;5.20;4.73;;;;;;;;;;5013744;28;20544;-58
2023/07/23 03:18:34;;;;;;;5.17;4.77;;;;;;;;;;5013696;28;20530;-58
2023/07/23 03:21:01;;;;;;;5.80;5.40;;;;;;;;;;5013607;28;20456;-55
2023/07/23 03:23:29;;;;;;;5.43;5.10;;;;;;;;;;5013503;28;20460;-58
2023/07/23 03:25:56;;;;;;;5.10;4.70;;;;;;;;;;5013355;28;20895;-58
2023/07/23 03:28:23;;;;;;;5.80;5.30;;;;;;;;;;5013422;28;20464;-57
2023/07/23 03:30:50;;;;;;;6.57;5.40;;;;;;;;;;5013559;28;20488;-57
2023/07/23 03:33:17;;;;;;;5.37;4.90;;;;;;;;;;5013466;28;21014;-57
2023/07/23 03:35:44;;;;;;;5.53;5.03;;;;;;;;;;5013334;28;20460;-57
2023/07/23 03:38:10;;;;;;;5.77;5.07;;;;;;;;;;5013291;28;20460;-57
2023/07/23 03:40:39;;;;;;;6.17;5.57;;;;;;;;;;5013240;28;20545;-57
2023/07/23 03:43:06;;;;;;;7.17;5.40;;;;;;;;;;5013401;28;20900;-57
2023/07/23 03:45:33;;;;;;;5.10;4.67;;;;;;;;;;5013284;28;20477;-58
2023/07/23 03:47:59;;;;;;;5.30;4.90;;;;;;;;;;5013254;28;20548;-57
2023/07/23 03:50:26;;;;;;;5.57;5.17;;;;;;;;;;5013200;28;20459;-57
2023/07/23 03:52:54;;;;;;;8.80;8.00;;;;;;;;;;5013079;28;20460;-57
2023/07/23 03:55:21;;;;;;;5.80;5.30;;;;;;;;;;5012867;28;21032;-57
2023/07/23 03:57:49;;;;;;;6.53;6.03;;;;;;;;;;5012857;28;20545;-57
2023/07/23 04:00:16;;;;;;;5.33;4.83;;;;;;;;;;5013194;28;20484;-56
2023/07/23 04:02:43;;;;;;;5.07;4.67;;;;;;;;;;5013050;28;20544;-58
2023/07/23 04:05:10;;;;;;;6.03;5.53;;;;;;;;;;5012923;28;20455;-57
2023/07/23 04:07:37;;;;;;;5.83;5.27;;;;;;;;;;5012952;28;20538;-56
2023/07/23 04:10:04;;;;;;;5.80;5.30;;;;;;;;;;5013123;28;20567;-57
2023/07/23 04:12:33;;;;;;;5.50;5.07;;;;;;;;;;5013073;28;20544;-55
2023/07/23 04:15:01;;;;;;;6.23;5.57;;;;;;;;;;5012944;28;20454;-57
2023/07/23 04:17:28;;;;;;;5.27;4.77;;;;;;;;;;5012792;28;20548;-58
2023/07/23 04:19:55;;;;;;;5.03;4.63;;;;;;;;;;5012877;28;20456;-58
2023/07/23 04:22:22;;;;;;;5.30;4.90;;;;;;;;;;5012715;28;20554;-57
2023/07/23 04:24:49;;;;;;;5.23;4.73;;;;;;;;;;5012967;28;20900;-58
2023/07/23 04:27:16;;;;;;;5.80;5.30;;;;;;;;;;5015134;28;21102;-56
2023/07/23 04:29:43;;;;;;;6.50;5.40;;;;;;;;;;5016677;28;20536;-57
2023/07/23 04:32:11;;;;;;;5.40;5.00;;;;;;;;;;5016607;28;20448;-57
2023/07/23 04:34:38;;;;;;;5.90;5.30;;;;;;;;;;5016739;28;20539;-58
2023/07/23 04:37:06;;;;;;;5.57;5.17;;;;;;;;;;5016664;28;20535;-58
2023/07/23 04:39:33;;;;;;;6.50;4.97;;;;;;;;;;5016589;28;20448;-57
2023/07/23 04:42:00;;;;;;;5.57;5.17;;;;;;;;;;5016575;28;20543;-57
2023/07/23 04:44:28;;;;;;;5.50;5.00;;;;;;;;;;5016380;28;20457;-57
2023/07/23 04:46:54;;;;;;;6.03;5.50;;;;;;;;;;5016369;28;20845;-57
2023/07/23 04:49:23;;;;;;;4.97;4.57;;;;;;;;;;5016232;28;20876;-57
2023/07/23 04:51:50;;;;;;;5.57;5.00;;;;;;;;;;5016431;28;20547;-57
2023/07/23 04:54:17;;;;;;;6.00;5.50;;;;;;;;;;5016253;28;20508;-57
2023/07/23 04:56:44;;;;;;;5.77;5.37;;;;;;;;;;5016106;28;20520;-58
2023/07/23 04:59:11;;;;;;;6.03;5.47;;;;;;;;;;5016124;28;20555;-57
2023/07/23 05:01:38;;;;;;;6.00;5.47;;;;;;;;;;5016055;28;20537;-58
2023/07/23 05:04:05;;;;;;;8.57;5.50;;;;;;;;;;5015942;28;20551;-58
2023/07/23 05:06:33;;;;;;;6.07;5.17;;;;;;;;;;5016049;28;20488;-58
2023/07/23 05:09:00;;;;;;;6.40;5.20;;;;;;;;;;5015985;28;20453;-58
2023/07/23 05:11:27;;;;;;;5.97;5.23;;;;;;;;;;5015729;28;20506;-58
2023/07/23 05:13:54;;;;;;;5.17;4.77;;;;;;;;;;5015836;28;20546;-57
2023/07/23 05:16:21;;;;;;;5.30;4.80;;;;;;;;;;5015753;28;20549;-56
2023/07/23 05:18:48;;;;;;;5.47;5.07;;;;;;;;;;5015666;28;20976;-57
2023/07/23 05:21:15;;;;;;;7.60;5.97;;;;;;;;;;5015875;28;20549;-58
2023/07/23 05:23:43;;;;;;;5.80;4.97;;;;;;;;;;5015742;28;20551;-57
2023/07/23 05:26:10;;;;;;;5.13;4.73;;;;;;;;;;5015443;28;20470;-57
2023/07/23 05:28:38;;;;;;;6.90;5.73;;;;;;;;;;5015563;28;20460;-58
2023/07/23 05:31:05;;;;;;;5.77;5.27;;;;;;;;;;5015426;28;20488;-57
2023/07/23 05:33:32;;;;;;;5.00;4.50;;;;;;;;;;5015608;28;20457;-58
2023/07/23 05:35:59;;;;;;;5.67;5.27;;;;;;;;;;5015263;28;20458;-58
2023/07/23 05:38:26;;;;;;;5.57;5.00;;;;;;;;;;5015131;28;20547;-56
2023/07/23 05:40:55;;;;;;;6.80;4.93;;;;;;;;;;5015360;28;20499;-56
2023/07/23 05:43:22;;;;;;;4.43;4.10;;;;;;;;;;5015183;28;20545;-58
2023/07/23 05:45:49;;;;;;;5.73;5.23;;;;;;;;;;5015027;28;20839;-58
2023/07/23 05:48:16;;;;;;;6.30;5.67;;;;;;;;;;5015339;28;20548;-57
2023/07/23 05:50:43;;;;;;;7.07;5.90;;;;;;;;;;5015205;28;20895;-57
2023/07/23 05:53:11;;;;;;;6.10;5.53;;;;;;;;;;5015127;28;20540;-58
2023/07/23 05:55:38;;;;;;;4.67;4.27;;;;;;;;;;5015070;28;20460;-58
2023/07/23 05:58:06;;;;;;;6.10;4.87;;;;;;;;;;5014645;28;20481;-58
2023/07/23 06:00:33;;;;;;;6.07;5.57;;;;;;;;;;5015118;28;20462;-57
2023/07/23 06:03:00;;;;;;;5.40;4.90;;;;;;;;;;5015041;28;20560;-58
2023/07/23 06:05:27;;;;;;;5.80;5.33;;;;;;;;;;5014945;28;20490;-58
2023/07/23 06:07:54;;;;;;;6.03;5.43;;;;;;;;;;5014760;28;21002;-58
2023/07/23 06:10:21;;;;;;;5.50;5.00;;;;;;;;;;5014707;28;20485;-57
2023/07/23 06:12:47;;;;;;;5.00;4.60;;;;;;;;;;5014625;28;20545;-58
2023/07/23 06:15:16;;;;;;;5.77;5.17;;;;;;;;;;5014487;28;20538;-58
2023/07/23 06:17:43;;;;;;;5.67;5.17;;;;;;;;;;5014569;28;21011;-58
2023/07/23 06:20:10;;;;;;;5.13;4.50;;;;;;;;;;5014562;28;20556;-58
2023/07/23 06:22:37;;;;;;;6.67;6.17;;;;;;;;;;5014597;28;20883;-57
2023/07/23 06:25:04;;;;;;;6.07;5.57;;;;;;;;;;5014399;28;20457;-57
2023/07/23 06:27:31;;;;;;;6.03;5.53;;;;;;;;;;5014551;28;20485;-57
2023/07/23 06:29:58;;;;;;;5.10;4.70;;;;;;;;;;5014528;28;20537;-57
2023/07/23 06:32:26;;;;;;;5.63;5.10;;;;;;;;;;5014238;28;20457;-58
2023/07/23 06:34:53;;;;;;;5.17;4.77;;;;;;;;;;5014326;28;20544;-58
2023/07/23 06:37:20;;;;;;;5.43;4.93;;;;;;;;;;5014330;28;20465;-58
2023/07/23 06:39:47;;;;;;;5.00;4.60;;;;;;;;;;5014108;28;20513;-58
2023/07/23 06:42:14;;;;;;;6.03;4.53;;;;;;;;;;5014234;28;20540;-57
2023/07/23 06:44:42;;;;;;;5.60;5.10;;;;;;;;;;5014185;28;20818;-57
2023/07/23 06:47:09;;;;;;;4.50;4.10;;;;;;;;;;5014109;28;20486;-57
2023/07/23 06:49:37;;;;;;;4.83;4.43;;;;;;;;;;5013480;28;20497;-56
2023/07/23 06:52:05;;;;;;;4.63;4.23;;;;;;;;;;5013968;28;20449;-56
2023/07/23 06:54:32;;;;;;;4.70;4.30;;;;;;;;;;5013810;28;20442;-57
2023/07/23 06:56:59;;;;;;;3.83;3.53;;;;;;;;;;5013804;28;20478;-57
2023/07/23 06:59:26;;;;;;;4.93;4.53;;;;;;;;;;5014008;28;20862;-57
2023/07/23 07:01:53;;;;;;;6.33;4.10;;;;;;;;;;5013835;28;20446;-58
2023/07/23 07:04:20;;;;;;;4.70;4.30;;;;;;;;;;5013851;28;20446;-57
2023/07/23 07:06:49;;;;;;;4.63;4.30;;;;;;;;;;5013600;28;20886;-58
2023/07/23 07:09:16;;;;;;;4.40;4.03;;;;;;;;;;5013881;28;20558;-58
2023/07/23 07:11:43;;;;;;;4.00;3.70;;;;;;;;;;5013541;28;20554;-57
2023/07/23 07:14:10;;;;;;;4.27;3.93;;;;;;;;;;5013685;28;20482;-58
2023/07/23 07:16:37;;;;;;;4.00;3.77;;;;;;;;;;5013528;28;20992;-57
2023/07/23 07:19:04;;;;;;;4.33;4.03;;;;;;;;;;5013502;28;20569;-57
2023/07/23 07:21:31;;;;;;;4.10;3.80;;;;;;;;;;5013569;28;20973;-57
2023/07/23 07:23:59;;;;;;;4.20;3.90;;;;;;;;;;5013519;28;20454;-57
2023/07/23 07:26:26;;;;;;;4.47;4.10;;;;;;;;;;5013230;28;20570;-57
2023/07/23 07:28:53;;;;;;;4.63;4.20;;;;;;;;;;5013480;28;20462;-58
2023/07/23 07:31:20;;;;;;;4.37;4.03;;;;;;;;;;5013374;28;20504;-56
2023/07/23 07:33:47;;;;;;;4.17;3.77;;;;;;;;;;5013266;28;20453;-57
2023/07/23 07:36:14;;;;;;;3.60;3.40;;;;;;;;;;5013184;28;20446;-57
2023/07/23 07:38:41;;;;;;;4.37;4.07;;;;;;;;;;5013409;28;20482;-58
2023/07/23 07:41:09;;;;;;;4.57;4.17;;;;;;;;;;5013260;28;20540;-58
2023/07/23 07:43:37;;;;;;;4.00;3.70;;;;;;;;;;5013172;28;20463;-58
2023/07/23 07:46:05;;;;;;;5.27;4.47;;;;;;;;;;5013091;28;20466;-57
2023/07/23 07:48:33;;;;;;;4.67;4.23;;;;;;;;;;5012950;28;20467;-58
2023/07/23 07:51:00;;;;;;;4.67;4.37;;;;;;;;;;5013213;28;20450;-58
2023/07/23 07:53:27;;;;;;;4.90;4.50;;;;;;;;;;5013222;28;20545;-58
2023/07/23 07:55:54;;;;;;;4.67;4.27;;;;;;;;;;5012854;28;20486;-58
2023/07/23 07:58:24;;;;;;;4.40;4.00;;;;;;;;;;5013099;28;20546;-58
2023/07/23 08:00:52;;;;;;;4.80;4.40;;;;;;;;;;5014927;28;20862;-58
2023/07/23 08:03:19;;;;;;;4.93;4.43;;;;;;;;;;5016992;28;20482;-58
2023/07/23 08:05:46;;;;;;;4.20;3.90;;;;;;;;;;5017116;28;20909;-57
2023/07/23 08:08:14;;;;;;;3.20;3.00;;;;;;;;;;5017050;28;20486;-58
2023/07/23 08:10:41;;;;;;;4.37;4.00;;;;;;;;;;5017013;28;20460;-58
2023/07/23 08:13:10;;;;;;;4.40;4.10;;;;;;;;;;5016871;28;20455;-59
2023/07/23 08:15:38;;;;;;;4.83;4.40;;;;;;;;;;5016770;28;20541;-58
2023/07/23 08:18:05;;;;;;;4.93;4.43;;;;;;;;;;5016965;28;20454;-58
2023/07/23 08:20:34;;;;;;;5.20;4.70;;;;;;;;;;5016896;28;20453;-58
2023/07/23 08:23:02;;;;;;;4.50;4.20;;;;;;;;;;5016760;28;20450;-57
2023/07/23 08:25:30;;;;;;;4.10;3.80;;;;;;;;;;5016679;28;20450;-58
2023/07/23 08:28:00;;;;;;;4.90;4.50;;;;;;;;;;5016506;28;20482;-57
2023/07/23 08:30:28;;;;;;;4.87;4.37;;;;;;;;;;5016533;28;20508;-57
2023/07/23 08:32:57;;;;;;;4.83;4.10;;;;;;;;;;5016718;28;20542;-58
2023/07/23 08:35:24;;;;;;;4.50;4.20;;;;;;;;;;5016266;28;20512;-58
2023/07/23 08:37:51;;;;;;;4.07;3.70;;;;;;;;;;5016589;28;20544;-57
2023/07/23 08:40:19;;;;;;;3.90;3.43;;;;;;;;;;5016426;28;20446;-58
2023/07/23 08:43:04;;;;;;;6.87;4.03;;;;;;;;;;5016251;28;20466;-57
2023/07/23 08:46:02;;;;;;;4.53;4.13;;;;;;;;;;5016428;28;20549;-57
2023/07/23 08:48:39;;;;;;;4.13;3.70;;;;;;;;;;5016207;28;20492;-58
2023/07/23 08:51:06;;;;;;;3.97;3.67;;;;;;;;;;5016243;28;20536;-58
2023/07/23 08:53:33;;;;;;;4.23;3.80;;;;;;;;;;5016286;28;20537;-58
2023/07/23 08:56:00;;;;;;;3.73;3.43;;;;;;;;;;5016053;28;20453;-57
2023/07/23 08:58:27;;;;;;;4.70;4.40;;;;;;;;;;5016233;28;20822;-57
2023/07/23 09:00:54;;;;;;;4.67;4.30;;;;;;;;;;5015961;28;20450;-56
2023/07/23 09:03:21;;;;;;;4.70;4.30;;;;;;;;;;5016009;28;20541;-58
2023/07/23 09:05:49;;;;;;;4.53;4.10;;;;;;;;;;5015907;28;20446;-58
2023/07/23 09:08:16;;;;;;;6.30;4.10;;;;;;;;;;5015951;28;20572;-58
2023/07/23 09:10:43;;;;;;;4.07;3.67;;;;;;;;;;5015751;28;20478;-58
2023/07/23 09:13:13;;;;;;;5.10;4.60;;;;;;;;;;5015180;28;20450;-57
2023/07/23 09:15:40;;;;;;;5.47;4.73;;;;;;;;;;5015990;28;20537;-58
2023/07/23 09:18:08;;;;;;;5.70;4.77;;;;;;;;;;5015581;28;20906;-58
2023/07/23 09:20:35;;;;;;;5.90;4.90;;;;;;;;;;5015495;28;20541;-58
2023/07/23 09:23:07;;;;;;;4.53;4.13;;;;;;;;;;5015880;28;20542;-58
2023/07/23 09:25:34;;;;;;;7.23;5.00;;;;;;;;;;5015675;28;20490;-58
2023/07/23 09:28:01;;;;;;;5.47;4.40;;;;;;;;;;5015470;28;20569;-58
2023/07/23 09:30:28;;;;;;;5.00;4.60;;;;;;;;;;5015342;28;20457;-57
2023/07/23 09:32:58;;;;;;;4.50;4.10;;;;;;;;;;5015576;28;20541;-58
2023/07/23 09:35:26;;;;;;;4.40;4.10;;;;;;;;;;5015423;28;20490;-58
2023/07/23 09:37:57;;;;;;;3.70;3.40;;;;;;;;;;5015466;28;20868;-57
2023/07/23 09:40:34;;;;;;;4.60;4.30;;;;;;;;;;5015227;28;20985;-56
2023/07/23 09:43:01;;;;;;;4.00;3.70;;;;;;;;;;5015183;28;20453;-57
2023/07/23 09:45:31;;;;;;;4.40;4.10;;;;;;;;;;5015361;28;20443;-57
2023/07/23 09:47:58;;;;;;;3.50;3.30;;;;;;;;;;5015400;28;20486;-55
2023/07/23 09:50:26;;;;;;;4.30;3.90;;;;;;;;;;5015214;28;20465;-58
2023/07/23 09:52:53;;;;;;;4.43;4.03;;;;;;;;;;5015120;28;20917;-56
2023/07/23 09:55:21;;;;;;;4.37;4.07;;;;;;;;;;5014972;28;20550;-57
2023/07/23 09:57:50;;;;;;;4.23;3.90;;;;;;;;;;5014514;28;20577;-58
2023/07/23 10:00:17;;;;;;;4.97;4.57;;;;;;;;;;5014949;28;20533;-57
2023/07/23 10:02:44;;;;;;;4.43;4.03;;;;;;;;;;5014864;28;20485;-57
2023/07/23 10:05:12;;;;;;;4.30;3.77;;;;;;;;;;5014857;28;20895;-57
2023/07/23 10:07:40;;;;;;;5.03;4.60;;;;;;;;;;5014710;28;20494;-56
2023/07/23 10:10:07;;;;;;;5.00;4.60;;;;;;;;;;5014450;28;20482;-57
2023/07/23 10:12:34;;;;;;;7.40;4.00;;;;;;;;;;5014783;28;20516;-58
2023/07/23 10:15:03;;;;;;;5.30;3.60;;;;;;;;;;5014750;28;20965;-57
2023/07/23 10:17:30;;;;;;;6.07;4.00;;;;;;;;;;5014630;28;20545;-57
2023/07/23 10:19:57;;;;;;;4.40;4.10;;;;;;;;;;5014628;28;20546;-57
2023/07/23 10:22:25;;;;;;;4.80;4.50;;;;;;;;;;5014464;28;20545;-57
2023/07/23 10:24:52;;;;;;;4.53;3.80;;;;;;;;;;5013489;28;20546;-57
2023/07/23 10:27:20;;;;;;;4.37;4.07;;;;;;;;;;5014416;28;20474;-57
2023/07/23 10:30:05;;;;;;;3.93;3.63;;;;;;;;;;5014322;28;20487;-57
2023/07/23 10:32:33;;;;;;;3.90;3.70;;;;;;;;;;5013497;28;20946;-58
2023/07/23 10:35:00;;;;;;;4.23;3.33;;;;;;;;;;5014219;28;20976;-57
2023/07/23 10:37:27;;;;;;;4.60;3.60;;;;;;;;;;5014053;28;20953;-57
2023/07/23 10:39:55;;;;;;;4.60;4.30;;;;;;;;;;5014329;28;20453;-57
2023/07/23 10:42:37;;;;;;;4.20;3.80;;;;;;;;;;5014136;28;20450;-56
2023/07/23 10:45:14;;;;;;;4.00;3.70;;;;;;;;;;5014092;28;20509;-57
2023/07/23 10:47:47;;;;;;;3.87;3.57;;;;;;;;;;5013828;28;21055;-57
2023/07/23 10:50:15;;;;;;;5.50;4.70;;;;;;;;;;5013890;28;20930;-57
2023/07/23 10:52:44;;;;;;;4.40;4.03;;;;;;;;;;5013857;28;20513;-56
2023/07/23 10:55:12;;;;;;;5.20;3.50;;;;;;;;;;5013883;28;20465;-56
2023/07/23 10:57:41;;;;;;;4.50;4.20;;;;;;;;;;5013716;28;20487;-57
2023/07/23 11:00:19;;;;;;;5.10;3.67;;;;;;;;;;5013644;28;20454;-56
2023/07/23 11:02:49;;;;;;;7.17;3.73;;;;;;;;;;5013949;28;20553;-57
2023/07/23 11:05:16;;;;;;;4.67;4.27;;;;;;;;;;5013810;28;20449;-56
2023/07/23 11:07:43;;;;;;;3.30;3.10;;;;;;;;;;5013591;28;20478;-57
2023/07/23 11:10:19;;;;;;;4.27;3.97;;;;;;;;;;5013510;28;20545;-58
2023/07/23 11:12:47;;;;;;;4.13;3.73;;;;;;;;;;5013482;28;20471;-57
2023/07/23 11:15:15;;;;;;;4.77;3.83;;;;;;;;;;5013524;28;20465;-57
2023/07/23 11:17:42;;;;;;;4.03;3.70;;;;;;;;;;5013577;28;20541;-57
2023/07/23 11:20:10;;;;;;;3.50;3.30;;;;;;;;;;5013451;28;20541;-57
2023/07/23 11:22:42;;;;;;;3.80;3.50;;;;;;;;;;5013463;28;20540;-57
2023/07/23 11:25:15;;;;;;;4.67;3.73;;;;;;;;;;5013242;28;20460;-57
2023/07/23 11:27:42;;;;;;;4.23;3.83;;;;;;;;;;5013314;28;20478;-57
2023/07/23 11:30:14;;;;;;;3.60;3.40;;;;;;;;;;5013421;28;20538;-56
2023/07/23 11:32:41;;;;;;;4.50;4.20;;;;;;;;;;5013437;28;20449;-58
2023/07/23 11:35:09;;;;;;;3.73;3.43;;;;;;;;;;5012945;28;20875;-57
2023/07/23 11:37:38;;;;;;;4.20;3.90;;;;;;;;;;5012881;28;20450;-57
2023/07/23 11:40:05;;;;;;;4.87;3.97;;;;;;;;;;5013115;28;20486;-57
2023/07/23 11:42:33;;;;;;;4.03;3.50;;;;;;;;;;5013357;28;21014;-58
2023/07/23 11:45:01;;;;;;;5.00;4.50;;;;;;;;;;5013221;28;20446;-58
2023/07/23 11:47:27;;;;;;;4.53;4.10;;;;;;;;;;5012906;28;21079;-57
2023/07/23 11:49:54;;;;;;;4.30;3.87;;;;;;;;;;5013115;28;20918;-57
2023/07/23 11:52:23;;;;;;;4.00;3.70;;;;;;;;;;5013003;28;20546;-57
2023/07/23 11:54:51;;;;;;;10.10;3.20;;;;;;;;;;5013209;28;20545;-57
2023/07/23 11:57:18;;;;;;;4.30;3.90;;;;;;;;;;5012981;28;20513;-57
2023/07/23 11:59:46;;;;;;;3.70;3.50;;;;;;;;;;5012909;28;20951;-58
2023/07/23 12:02:13;;;;;;;5.30;3.27;;;;;;;;;;5013084;28;20479;-58
2023/07/23 12:04:40;;;;;;;3.87;3.50;;;;;;;;;;5012997;28;20542;-57
2023/07/23 12:07:07;;;;;;;4.87;3.13;;;;;;;;;;5012829;28;20544;-57
2023/07/23 12:09:35;;;;;;;4.47;4.10;;;;;;;;;;5012955;28;20569;-58
2023/07/23 12:12:03;;;;;;;3.30;3.10;;;;;;;;;;5012997;28;20537;-58
2023/07/23 12:14:31;;;;;;;4.10;3.70;;;;;;;;;;5013036;28;21023;-58
2023/07/23 12:16:58;;;;;;;3.60;3.30;;;;;;;;;;5012871;28;20537;-57
2023/07/23 12:19:25;;;;;;;3.67;3.43;;;;;;;;;;5012837;28;20642;-58
2023/07/23 12:21:53;;;;;;;4.13;3.20;;;;;;;;;;5013089;28;20545;-58
2023/07/23 12:24:22;;;;;;;3.33;3.13;;;;;;;;;;5012771;28;20956;-57
2023/07/23 12:26:49;;;;;;;2.80;2.60;;;;;;;;;;5012807;28;20458;-58
2023/07/23 12:29:18;;;;;;;3.70;3.40;;;;;;;;;;5012643;28;20483;-57
2023/07/23 12:31:46;;;;;;;3.20;3.00;;;;;;;;;;5012678;28;20446;-58
2023/07/23 12:34:13;;;;;;;3.47;3.27;;;;;;;;;;5012492;28;20505;-58
2023/07/23 12:36:41;;;;;;;3.17;2.63;;;;;;;;;;5012720;28;20451;-57
2023/07/23 12:39:09;;;;;;;2.77;2.57;;;;;;;;;;5012799;28;20533;-58
2023/07/23 12:41:36;;;;;;;3.57;3.37;;;;;;;;;;5012664;28;20482;-58
2023/07/23 12:44:03;;;;;;;2.67;2.47;;;;;;;;;;5012636;28;20454;-56
2023/07/23 12:46:32;;;;;;;2.37;2.20;;;;;;;;;;5012543;28;20537;-58
2023/07/23 12:48:59;;;;;;;2.63;2.43;;;;;;;;;;5016109;28;20592;-57
2023/07/23 12:51:26;;;;;;;2.47;2.27;;;;;;;;;;5016373;28;20477;-58
2023/07/23 12:53:53;;;;;;;2.80;2.60;;;;;;;;;;5016308;28;20545;-58
2023/07/23 12:56:21;;;;;;;2.80;2.60;;;;;;;;;;5016063;28;20552;-57
2023/07/23 12:58:48;;;;;;;2.67;2.57;;;;;;;;;;5016050;28;20454;-58
2023/07/23 13:01:15;;;;;;;3.40;2.87;;;;;;;;;;5015969;28;20543;-57
2023/07/23 13:03:43;;;;;;;2.60;2.50;;;;;;;;;;5016134;28;20541;-58
2023/07/23 13:06:10;;;;;;;5.10;2.30;;;;;;;;;;5016024;28;20541;-57
2023/07/23 13:08:37;;;;;;;2.60;2.40;;;;;;;;;;5015650;28;20482;-57
2023/07/23 13:11:04;;;;;;;5.37;2.87;;;;;;;;;;5015891;28;20509;-57
2023/07/23 13:13:31;;;;;;;2.77;1.97;;;;;;;;;;5015828;28;20545;-58
2023/07/23 13:15:58;;;;;;;2.77;2.60;;;;;;;;;;5015900;28;20891;-58
2023/07/23 13:18:25;;;;;;;2.63;2.43;;;;;;;;;;5015831;28;20541;-58
2023/07/23 13:20:54;;;;;;;2.90;2.70;;;;;;;;;;5015866;28;20878;-57
2023/07/23 13:23:20;;;;;;;5.57;3.27;;;;;;;;;;5015520;28;20973;-58
2023/07/23 13:25:48;;;;;;;2.67;2.47;;;;;;;;;;5015558;28;21009;-58
2023/07/23 13:28:15;;;;;;;2.43;2.30;;;;;;;;;;5015337;28;20569;-58
2023/07/23 13:30:42;;;;;;;3.10;2.90;;;;;;;;;;5015752;28;20871;-57
2023/07/23 13:33:09;;;;;;;1.90;1.80;;;;;;;;;;5015484;28;20857;-57
2023/07/23 13:35:36;;;;;;;2.17;2.07;;;;;;;;;;5015412;28;20545;-58
2023/07/23 13:38:05;;;;;;;3.60;2.00;;;;;;;;;;5015454;28;20837;-56
2023/07/23 13:40:32;;;;;;;2.90;2.70;;;;;;;;;;5015217;28;20447;-57
2023/07/23 13:42:59;;;;;;;2.73;2.53;;;;;;;;;;5015455;28;20545;-57
2023/07/23 13:45:26;;;;;;;2.50;2.30;;;;;;;;;;5015355;28;20501;-57
2023/07/23 13:47:53;;;;;;;2.60;2.40;;;;;;;;;;5015249;28;20546;-57
2023/07/23 13:50:20;;;;;;;5.30;3.03;;;;;;;;;;5015077;28;20569;-58
2023/07/23 13:52:47;;;;;;;2.40;2.30;;;;;;;;;;5015097;28;20549;-57
2023/07/23 13:55:16;;;;;;;2.80;2.60;;;;;;;;;;5015001;28;20459;-57
2023/07/23 13:57:43;;;;;;;2.77;2.57;;;;;;;;;;5014618;28;20565;-57
2023/07/23 14:00:11;;;;;;;2.87;2.53;;;;;;;;;;5015038;28;20549;-58
2023/07/23 14:02:42;;;;;;;2.50;2.30;;;;;;;;;;5014901;28;20459;-57
2023/07/23 14:05:09;;;;;;;2.37;2.23;;;;;;;;;;5014798;28;20458;-57
2023/07/23 14:07:36;;;;;;;3.00;2.80;;;;;;;;;;5014771;28;20489;-57
2023/07/23 14:10:03;;;;;;;3.30;3.10;;;;;;;;;;5014903;28;20522;-57
2023/07/23 14:12:32;;;;;;;3.00;2.73;;;;;;;;;;5014911;28;20537;-58
2023/07/23 14:14:59;;;;;;;2.77;2.57;;;;;;;;;;5014592;28;20954;-57
2023/07/23 14:17:26;;;;;;;4.60;3.27;;;;;;;;;;5014722;28;20545;-57
2023/07/23 14:19:52;;;;;;;3.67;3.37;;;;;;;;;;5014640;28;20453;-58
2023/07/23 14:22:19;;;;;;;3.40;2.80;;;;;;;;;;5014483;28;20450;-57
2023/07/23 14:24:46;;;;;;;2.87;2.67;;;;;;;;;;5014697;28;20867;-57
2023/07/23 14:27:13;;;;;;;4.47;3.30;;;;;;;;;;5014584;28;20549;-58
2023/07/23 14:29:42;;;;;;;2.73;2.57;;;;;;;;;;5014331;28;20482;-57
2023/07/23 14:32:09;;;;;;;7.73;3.40;;;;;;;;;;5014463;28;20875;-57
2023/07/23 14:34:38;;;;;;;2.80;2.60;;;;;;;;;;5014189;28;20454;-57
2023/07/23 14:37:05;;;;;;;3.93;3.20;;;;;;;;;;5014237;28;20938;-58
2023/07/23 14:39:32;;;;;;;4.60;4.13;;;;;;;;;;5014422;28;20482;-57
2023/07/23 14:41:59;;;;;;;4.40;4.00;;;;;;;;;;5014108;28;21010;-57
2023/07/23 14:44:26;;;;;;;22.17;14.23;;;;;;;;;;5014577;28;20537;-58
2023/07/23 14:46:54;;;;;;;6.20;5.63;;;;;;;;;;5014182;28;20541;-57